createdAt,value
2019-06-26T00:01:14.587Z,14.47
2019-06-26T00:05:21.526Z,13.73
2019-06-26T00:09:27.954Z,17.20
2019-06-26T00:13:34.678Z,16.67
2019-06-26T00:17:42.110Z,15.60
2019-06-26T00:21:49.814Z,14.30
2019-06-26T00:25:56.187Z,14.73
2019-06-26T00:30:04.286Z,14.30
2019-06-26T00:34:10.883Z,14.97
2019-06-26T00:38:18.251Z,15.33
2019-06-26T00:42:25.393Z,15.10
2019-06-26T00:46:31.850Z,16.20
2019-06-26T00:50:38.174Z,14.40
2019-06-26T00:54:44.450Z,14.20
2019-06-26T00:58:50.706Z,15.67
2019-06-26T01:02:57.067Z,17.90
2019-06-26T01:07:03.310Z,15.60
2019-06-26T01:11:11.482Z,16.03
2019-06-26T01:15:17.961Z,14.90
2019-06-26T01:19:24.409Z,15.77
2019-06-26T01:23:30.827Z,15.43
2019-06-26T01:27:38.277Z,17.10
2019-06-26T01:31:44.703Z,16.30
2019-06-26T01:35:52.826Z,14.93
2019-06-26T01:39:59.125Z,15.57
2019-06-26T01:44:14.725Z,13.70
2019-06-26T01:48:14.806Z,16.00
2019-06-26T01:52:22.098Z,17.43
2019-06-26T01:56:37.500Z,15.67
2019-06-26T02:00:43.767Z,15.07
2019-06-26T02:04:50.409Z,15.27
2019-06-26T02:08:57.258Z,17.77
2019-06-26T02:13:03.889Z,15.00
2019-06-26T02:17:10.147Z,17.67
2019-06-26T02:21:17.161Z,16.30
2019-06-26T02:25:23.408Z,15.90
2019-06-26T02:29:30.556Z,17.23
2019-06-26T02:33:41.422Z,17.30
2019-06-26T02:37:49.621Z,16.17
2019-06-26T02:41:57.553Z,15.77
2019-06-26T02:46:04.404Z,20.10
2019-06-26T02:50:11.950Z,19.87
2019-06-26T02:54:30.586Z,18.13
2019-06-26T02:58:49.862Z,19.17
2019-06-26T03:02:56.338Z,20.13
2019-06-26T03:07:04.609Z,22.27
2019-06-26T03:11:10.922Z,21.37
2019-06-26T03:15:17.710Z,19.37
2019-06-26T03:19:28.729Z,24.33
2019-06-26T03:23:36.061Z,21.53
2019-06-26T03:27:42.400Z,22.67
2019-06-26T03:31:52.650Z,22.10
2019-06-26T03:35:58.918Z,24.47
2019-06-26T03:40:06.986Z,23.73
2019-06-26T03:44:13.549Z,23.23
2019-06-26T03:48:24.003Z,21.77
2019-06-26T03:52:31.179Z,20.87
2019-06-26T03:56:56.417Z,20.67
2019-06-26T04:01:04.040Z,23.93
2019-06-26T04:05:10.423Z,26.37
2019-06-26T04:09:16.932Z,20.43
2019-06-26T04:13:24.117Z,20.70
2019-06-26T04:17:30.537Z,21.27
2019-06-26T04:21:36.905Z,21.00
2019-06-26T04:25:43.287Z,17.23
2019-06-26T04:29:50.065Z,17.23
2019-06-26T04:33:56.494Z,21.20
2019-06-26T04:38:04.197Z,15.30
2019-06-26T04:42:11.002Z,18.43
2019-06-26T04:46:17.465Z,17.07
2019-06-26T04:50:26.301Z,14.73
2019-06-26T04:54:32.609Z,17.87
2019-06-26T04:58:39.085Z,16.90
2019-06-26T05:02:45.536Z,16.83
2019-06-26T05:07:07.496Z,20.87
2019-06-26T05:11:20.493Z,14.70
2019-06-26T05:15:27.526Z,18.47
2019-06-26T05:19:34.222Z,13.00
2019-06-26T05:23:41.737Z,18.00
2019-06-26T05:27:48.209Z,16.00
2019-06-26T05:31:54.662Z,13.63
2019-06-26T05:36:01.153Z,10.13
2019-06-26T05:40:10.432Z,13.17
2019-06-26T05:44:17.057Z,11.70
2019-06-26T05:48:24.753Z,15.37
2019-06-26T05:52:31.200Z,11.10
2019-06-26T05:56:37.794Z,11.37
2019-06-26T06:00:44.350Z,12.73
2019-06-26T06:04:50.772Z,12.83
2019-06-26T06:08:57.585Z,10.03
2019-06-26T06:13:03.910Z,14.07
2019-06-26T06:17:10.520Z,13.97
2019-06-26T06:21:17.236Z,13.03
2019-06-26T06:25:24.737Z,12.07
2019-06-26T06:29:31.476Z,10.67
2019-06-26T06:33:37.946Z,10.17
2019-06-26T06:37:44.297Z,8.83
2019-06-26T06:41:52.041Z,9.03
2019-06-26T06:45:59.958Z,10.00
2019-06-26T06:50:08.438Z,7.63
2019-06-26T06:54:14.851Z,8.23
2019-06-26T06:58:21.405Z,12.17
2019-06-26T07:02:29.267Z,8.40
2019-06-26T07:06:35.732Z,10.73
2019-06-26T07:10:42.070Z,12.03
2019-06-26T07:14:48.598Z,7.63
2019-06-26T07:18:54.822Z,8.20
2019-06-26T07:23:01.069Z,6.37
2019-06-26T07:27:07.685Z,6.93
2019-06-26T07:31:14.193Z,12.53
2019-06-26T07:35:20.517Z,6.50
2019-06-26T07:39:26.788Z,8.27
2019-06-26T07:43:33.218Z,9.43
2019-06-26T07:47:43.657Z,7.07
2019-06-26T07:51:48.632Z,7.80
2019-06-26T07:55:54.921Z,8.20
2019-06-26T08:00:02.164Z,6.50
2019-06-26T08:04:09.342Z,6.50
2019-06-26T08:08:16.033Z,11.30
2019-06-26T08:12:22.523Z,8.00
2019-06-26T08:16:29.057Z,6.83
2019-06-26T08:20:51.623Z,6.77
2019-06-26T08:24:43.410Z,10.67
2019-06-26T08:28:49.836Z,6.80
2019-06-26T08:32:58.978Z,8.43
2019-06-26T08:37:25.279Z,9.53
2019-06-26T08:41:31.637Z,6.73
2019-06-26T08:45:37.879Z,6.63
2019-06-26T08:49:44.189Z,8.90
2019-06-26T08:53:50.736Z,9.83
2019-06-26T08:57:57.346Z,9.57
2019-06-26T09:02:03.621Z,6.70
2019-06-26T09:06:09.949Z,9.77
2019-06-26T09:10:18.041Z,12.47
2019-06-26T09:14:24.470Z,9.43
2019-06-26T09:18:35.280Z,10.97
2019-06-26T09:22:38.731Z,6.57
2019-06-26T09:26:44.970Z,9.63
2019-06-26T09:30:51.266Z,10.47
2019-06-26T09:34:57.978Z,13.63
2019-06-26T09:39:07.534Z,8.83
2019-06-26T09:43:19.413Z,7.93
2019-06-26T09:47:25.657Z,10.63
2019-06-26T09:51:32.371Z,11.60
2019-06-26T09:55:38.858Z,9.00
2019-06-26T09:59:45.932Z,7.03
2019-06-26T10:03:52.151Z,5.70
2019-06-26T10:07:58.477Z,10.00
2019-06-26T10:12:04.865Z,10.00
2019-06-26T10:16:12.397Z,10.23
2019-06-26T10:20:19.640Z,8.97
2019-06-26T10:24:39.377Z,16.60
2019-06-26T10:28:45.919Z,7.87
2019-06-26T10:32:52.637Z,9.03
2019-06-26T10:37:07.630Z,9.77
2019-06-26T10:41:13.856Z,12.03
2019-06-26T10:45:37.930Z,10.83
2019-06-26T10:50:02.678Z,11.13
2019-06-26T10:54:08.974Z,12.10
2019-06-26T10:58:15.698Z,18.07
2019-06-26T11:02:22.069Z,8.60
2019-06-26T11:06:28.367Z,13.20
2019-06-26T11:10:34.691Z,13.73
2019-06-26T11:14:41.610Z,9.33
2019-06-26T11:18:48.042Z,10.53
2019-06-26T11:22:54.291Z,11.50
2019-06-26T11:27:02.115Z,15.03
2019-06-26T11:31:11.703Z,11.50
2019-06-26T11:35:36.812Z,15.33
2019-06-26T11:40:01.806Z,16.07
2019-06-26T11:44:27.085Z,13.27
2019-06-26T11:48:33.358Z,15.57
2019-06-26T11:52:41.795Z,21.37
2019-06-26T11:57:07.738Z,14.50
2019-06-26T12:01:15.923Z,14.63
2019-06-26T12:05:40.186Z,12.27
2019-06-26T12:09:47.116Z,12.83
2019-06-26T12:13:54.680Z,15.17
2019-06-26T12:18:01.085Z,16.87
2019-06-26T12:22:07.341Z,14.87
2019-06-26T12:26:13.665Z,12.93
2019-06-26T12:30:23.750Z,15.17
2019-06-26T12:34:51.791Z,13.87
2019-06-26T12:39:16.826Z,17.10
2019-06-26T12:43:23.233Z,11.67
2019-06-26T12:47:29.565Z,18.83
2019-06-26T12:51:35.996Z,14.10
2019-06-26T12:55:42.437Z,15.20
2019-06-26T12:59:57.353Z,15.40
2019-06-26T13:03:57.361Z,20.70
2019-06-26T13:08:04.877Z,15.80
2019-06-26T13:12:10.897Z,14.85
2019-06-26T13:16:17.407Z,14.80
2019-06-26T13:20:31.957Z,19.53
2019-06-26T13:24:38.152Z,14.00
2019-06-26T13:28:44.617Z,19.80
2019-06-26T13:32:50.990Z,17.00
2019-06-26T13:36:57.397Z,22.73
2019-06-26T13:41:03.710Z,17.80
2019-06-26T13:45:12.026Z,19.13
2019-06-26T13:49:20.303Z,16.70
2019-06-26T13:53:44.690Z,18.03
2019-06-26T13:57:51.206Z,21.48
2019-06-26T14:01:59.639Z,17.07
2019-06-26T14:06:05.953Z,18.57
2019-06-26T14:10:13.227Z,18.27
2019-06-26T14:14:20.562Z,13.17
2019-06-26T14:18:30.371Z,16.13
2019-06-26T14:22:37.315Z,13.93
2019-06-26T14:26:43.713Z,22.57
2019-06-26T14:30:49.961Z,18.10
2019-06-26T14:34:56.306Z,15.80
2019-06-26T14:39:02.530Z,22.27
2019-06-26T14:43:10.590Z,21.93
2019-06-26T14:47:16.991Z,14.27
2019-06-26T14:51:23.551Z,18.47
2019-06-26T14:55:29.878Z,18.53
2019-06-26T14:59:38.447Z,19.47
2019-06-26T15:03:44.783Z,19.37
2019-06-26T15:07:52.138Z,19.30
2019-06-26T15:11:58.570Z,20.50
2019-06-26T15:16:22.958Z,21.67
2019-06-26T15:20:29.271Z,14.17
2019-06-26T15:24:35.543Z,16.93
2019-06-26T15:28:46.166Z,20.20
2019-06-26T15:33:10.773Z,25.40
2019-06-26T15:37:18.629Z,19.10
2019-06-26T15:41:26.547Z,23.80
2019-06-26T15:45:51.491Z,20.37
2019-06-26T15:50:10.463Z,20.40
2019-06-26T15:54:32.906Z,17.97
2019-06-26T15:58:44.538Z,25.87
2019-06-26T16:02:53.722Z,17.33
2019-06-26T16:07:18.810Z,22.23
2019-06-26T16:11:36.733Z,20.10
2019-06-26T16:15:42.968Z,18.60
2019-06-26T16:19:49.221Z,19.23
2019-06-26T16:23:55.475Z,19.80
2019-06-26T16:28:05.863Z,21.07
2019-06-26T16:32:09.895Z,20.73
2019-06-26T16:36:16.127Z,18.83
2019-06-26T16:40:22.373Z,22.23
2019-06-26T16:44:28.631Z,17.33
2019-06-26T16:48:34.955Z,21.63
2019-06-26T16:52:49.315Z,17.83
2019-06-26T16:56:50.442Z,20.60
2019-06-26T17:00:56.826Z,18.67
2019-06-26T17:05:03.151Z,21.63
2019-06-26T17:09:09.753Z,18.00
2019-06-26T17:13:16.010Z,21.27
2019-06-26T17:17:22.290Z,22.33
2019-06-26T17:21:28.802Z,17.30
2019-06-26T17:25:36.748Z,21.83
2019-06-26T17:29:45.259Z,28.83
2019-06-26T17:33:51.515Z,24.70
2019-06-26T17:37:57.760Z,18.87
2019-06-26T17:42:04.002Z,20.17
2019-06-26T17:46:11.040Z,26.73
2019-06-26T17:50:19.074Z,18.77
2019-06-26T17:54:25.339Z,23.53
2019-06-26T17:58:31.660Z,23.17
2019-06-26T18:02:37.918Z,26.53
2019-06-26T18:06:44.154Z,21.83
2019-06-26T18:10:50.476Z,19.97
2019-06-26T18:14:56.731Z,27.23
2019-06-26T18:19:03.046Z,26.20
2019-06-26T18:23:09.300Z,23.00
2019-06-26T18:27:15.610Z,28.57
2019-06-26T18:31:21.870Z,23.97
2019-06-26T18:35:28.138Z,26.73
2019-06-26T18:39:35.465Z,23.93
2019-06-26T18:43:41.917Z,25.50
2019-06-26T18:47:48.891Z,21.60
2019-06-26T18:51:55.153Z,24.50
2019-06-26T18:56:01.691Z,28.37
2019-06-26T19:00:08.733Z,23.57
2019-06-26T19:04:15.317Z,26.17
2019-06-26T19:08:22.297Z,19.30
2019-06-26T19:12:28.582Z,20.53
2019-06-26T19:16:36.764Z,21.60
2019-06-26T19:20:43.170Z,24.07
2019-06-26T19:24:49.850Z,20.67
2019-06-26T19:28:56.220Z,16.87
2019-06-26T19:33:02.584Z,20.53
2019-06-26T19:37:10.005Z,21.10
2019-06-26T19:41:16.498Z,17.13
2019-06-26T19:45:24.547Z,19.27
2019-06-26T19:49:30.789Z,23.23
2019-06-26T19:53:38.236Z,20.83
2019-06-26T19:57:44.930Z,20.73
2019-06-26T20:01:53.028Z,19.53
2019-06-26T20:06:01.273Z,17.90
2019-06-26T20:10:11.456Z,22.97
2019-06-26T20:14:21.466Z,18.50
2019-06-26T20:18:28.551Z,21.87
2019-06-26T20:22:34.887Z,18.70
2019-06-26T20:26:48.021Z,17.20
2019-06-26T20:30:54.682Z,19.07
2019-06-26T20:35:01.085Z,15.80
2019-06-26T20:39:07.478Z,23.47
2019-06-26T20:43:15.053Z,16.73
2019-06-26T20:47:21.501Z,16.13
2019-06-26T20:51:27.973Z,24.40
2019-06-26T20:55:34.356Z,20.90
2019-06-26T20:59:40.581Z,18.90
2019-06-26T21:03:46.914Z,15.53
2019-06-26T21:07:53.233Z,26.00
2019-06-26T21:11:59.957Z,18.97
2019-06-26T21:16:06.214Z,16.83
2019-06-26T21:20:12.562Z,18.07
2019-06-26T21:24:18.870Z,15.27
2019-06-26T21:28:26.095Z,16.97
2019-06-26T21:32:32.467Z,21.17
2019-06-26T21:36:38.738Z,15.33
2019-06-26T21:40:45.146Z,14.60
2019-06-26T21:44:53.542Z,20.83
2019-06-26T21:48:59.912Z,24.00
2019-06-26T21:53:06.466Z,18.50
2019-06-26T21:57:13.715Z,18.00
2019-06-26T22:01:38.347Z,17.80
2019-06-26T22:06:03.055Z,17.10
2019-06-26T22:10:21.330Z,20.33
2019-06-26T22:14:34.498Z,15.57
2019-06-26T22:18:40.902Z,17.90
2019-06-26T22:22:47.331Z,21.17
2019-06-26T22:26:54.942Z,17.77
2019-06-26T22:31:01.172Z,15.63
2019-06-26T22:35:08.629Z,14.33
2019-06-26T22:39:18.170Z,16.57
2019-06-26T22:43:29.274Z,15.10
2019-06-26T22:47:36.794Z,16.90
2019-06-26T22:51:46.735Z,16.23
2019-06-26T22:56:06.699Z,13.53
2019-06-26T23:00:04.839Z,16.23
2019-06-26T23:04:31.082Z,14.87
2019-06-26T23:08:38.465Z,16.00
2019-06-26T23:12:48.145Z,13.13
2019-06-26T23:16:55.059Z,12.23
2019-06-26T23:21:01.499Z,15.83
2019-06-26T23:25:16.695Z,17.30
2019-06-26T23:29:23.865Z,15.53
2019-06-26T23:33:34.433Z,14.13
2019-06-26T23:37:43.515Z,13.80
2019-06-26T23:41:53.707Z,14.10
2019-06-26T23:46:00.126Z,15.47
2019-06-26T23:50:09.058Z,12.47
2019-06-26T23:54:16.982Z,16.40
2019-06-26T23:58:25.975Z,17.47
